sensor_id;sensor_type;location;lat;lon;timestamp;temperature;humidity
46492;DHT22;32206;51.446;6.792;2022-09-23T00:02:14;13.70;1.00
46492;DHT22;32206;51.446;6.792;2022-09-23T00:04:41;13.80;1.00
46492;DHT22;32206;51.446;6.792;2022-09-23T00:07:07;13.70;31.40
46492;DHT22;32206;51.446;6.792;2022-09-23T00:09:33;13.70;1.00
46492;DHT22;32206;51.446;6.792;2022-09-23T00:11:59;13.60;67.00
46492;DHT22;32206;51.446;6.792;2022-09-23T00:14:25;13.60;1.00
46492;DHT22;32206;51.446;6.792;2022-09-23T00:16:51;13.70;99.90
46492;DHT22;32206;51.446;6.792;2022-09-23T00:19:16;13.60;1.00
46492;DHT22;32206;51.446;6.792;2022-09-23T00:21:42;13.90;99.90
46492;DHT22;32206;51.446;6.792;2022-09-23T00:24:07;13.60;99.90
46492;DHT22;32206;51.446;6.792;2022-09-23T00:26:33;13.60;1.00
46492;DHT22;32206;51.446;6.792;2022-09-23T00:28:59;13.60;99.90
46492;DHT22;32206;51.446;6.792;2022-09-23T00:31:25;13.60;1.00
46492;DHT22;32206;51.446;6.792;2022-09-23T00:33:57;13.50;99.90
46492;DHT22;32206;51.446;6.792;2022-09-23T00:36:24;13.50;1.00
46492;DHT22;32206;51.446;6.792;2022-09-23T00:38:50;13.90;99.90
46492;DHT22;32206;51.446;6.792;2022-09-23T00:41:15;13.50;99.90
46492;DHT22;32206;51.446;6.792;2022-09-23T00:46:18;13.50;99.90
46492;DHT22;32206;51.446;6.792;2022-09-23T00:48:47;13.40;1.00
46492;DHT22;32206;51.446;6.792;2022-09-23T00:51:18;13.40;99.90
46492;DHT22;32206;51.446;6.792;2022-09-23T00:53:46;13.40;1.00
46492;DHT22;32206;51.446;6.792;2022-09-23T00:56:13;13.40;99.90
46492;DHT22;32206;51.446;6.792;2022-09-23T00:58:40;13.50;99.90
46492;DHT22;32206;51.446;6.792;2022-09-23T01:01:08;13.40;1.00
46492;DHT22;32206;51.446;6.792;2022-09-23T01:03:34;13.70;99.90
46492;DHT22;32206;51.446;6.792;2022-09-23T01:06:00;13.30;1.00
46492;DHT22;32206;51.446;6.792;2022-09-23T01:08:26;13.30;99.90
46492;DHT22;32206;51.446;6.792;2022-09-23T01:11:23;13.20;1.00
46492;DHT22;32206;51.446;6.792;2022-09-23T01:14:35;13.20;99.90
46492;DHT22;32206;51.446;6.792;2022-09-23T01:17:27;13.20;99.90
46492;DHT22;32206;51.446;6.792;2022-09-23T01:23:04;13.20;1.00
46492;DHT22;32206;51.446;6.792;2022-09-23T01:28:21;13.30;1.00
46492;DHT22;32206;51.446;6.792;2022-09-23T01:36:09;13.30;99.90
46492;DHT22;32206;51.446;6.792;2022-09-23T01:38:50;13.20;1.00
46492;DHT22;32206;51.446;6.792;2022-09-23T01:44:05;13.30;99.90
46492;DHT22;32206;51.446;6.792;2022-09-23T01:47:15;13.10;99.90
46492;DHT22;32206;51.446;6.792;2022-09-23T01:57:33;13.10;99.90
46492;DHT22;32206;51.446;6.792;2022-09-23T02:00:10;13.00;99.90
46492;DHT22;32206;51.446;6.792;2022-09-23T02:02:51;13.00;99.90
46492;DHT22;32206;51.446;6.792;2022-09-23T02:05:32;13.10;99.90
46492;DHT22;32206;51.446;6.792;2022-09-23T02:08:28;13.00;99.90
46492;DHT22;32206;51.446;6.792;2022-09-23T02:10:59;13.00;99.90
46492;DHT22;32206;51.446;6.792;2022-09-23T02:16:09;12.90;1.00
46492;DHT22;32206;51.446;6.792;2022-09-23T02:18:57;13.00;99.90
46492;DHT22;32206;51.446;6.792;2022-09-23T02:21:32;12.90;99.90
46492;DHT22;32206;51.446;6.792;2022-09-23T02:26:44;12.90;99.90
46492;DHT22;32206;51.446;6.792;2022-09-23T02:29:25;13.10;99.90
46492;DHT22;32206;51.446;6.792;2022-09-23T02:32:19;12.90;1.00
46492;DHT22;32206;51.446;6.792;2022-09-23T02:35:12;12.90;1.00
46492;DHT22;32206;51.446;6.792;2022-09-23T02:40:52;12.90;99.90
46492;DHT22;32206;51.446;6.792;2022-09-23T02:43:53;13.00;99.90
46492;DHT22;32206;51.446;6.792;2022-09-23T02:46:13;12.90;99.90
46492;DHT22;32206;51.446;6.792;2022-09-23T02:48:47;12.70;99.90
46492;DHT22;32206;51.446;6.792;2022-09-23T02:51:14;12.90;99.90
46492;DHT22;32206;51.446;6.792;2022-09-23T02:53:40;12.90;99.90
46492;DHT22;32206;51.446;6.792;2022-09-23T02:56:19;12.90;99.90
46492;DHT22;32206;51.446;6.792;2022-09-23T02:58:49;12.90;99.90
46492;DHT22;32206;51.446;6.792;2022-09-23T03:07:09;12.90;99.90
46492;DHT22;32206;51.446;6.792;2022-09-23T03:10:23;12.90;99.90
46492;DHT22;32206;51.446;6.792;2022-09-23T03:15:52;12.80;99.90
46492;DHT22;32206;51.446;6.792;2022-09-23T03:23:36;12.80;1.00
46492;DHT22;32206;51.446;6.792;2022-09-23T03:26:09;12.80;1.00
46492;DHT22;32206;51.446;6.792;2022-09-23T03:28:39;12.80;1.00
46492;DHT22;32206;51.446;6.792;2022-09-23T03:31:07;12.70;1.00
46492;DHT22;32206;51.446;6.792;2022-09-23T03:33:33;12.70;1.00
46492;DHT22;32206;51.446;6.792;2022-09-23T03:36:07;12.70;1.00
46492;DHT22;32206;51.446;6.792;2022-09-23T03:38:58;12.60;1.00
46492;DHT22;32206;51.446;6.792;2022-09-23T03:41:33;12.60;1.00
46492;DHT22;32206;51.446;6.792;2022-09-23T03:44:02;12.70;99.90
46492;DHT22;32206;51.446;6.792;2022-09-23T03:46:28;12.50;90.70
46492;DHT22;32206;51.446;6.792;2022-09-23T03:49:27;12.50;75.40
46492;DHT22;32206;51.446;6.792;2022-09-23T03:51:54;12.50;99.90
46492;DHT22;32206;51.446;6.792;2022-09-23T03:54:20;12.50;99.90
46492;DHT22;32206;51.446;6.792;2022-09-23T03:56:46;12.40;99.90
46492;DHT22;32206;51.446;6.792;2022-09-23T03:59:15;12.70;99.90
46492;DHT22;32206;51.446;6.792;2022-09-23T04:01:41;12.30;99.90
46492;DHT22;32206;51.446;6.792;2022-09-23T04:04:10;12.30;99.90
46492;DHT22;32206;51.446;6.792;2022-09-23T04:06:36;12.30;99.90
46492;DHT22;32206;51.446;6.792;2022-09-23T04:09:05;12.40;99.90
46492;DHT22;32206;51.446;6.792;2022-09-23T04:11:30;12.20;99.90
46492;DHT22;32206;51.446;6.792;2022-09-23T04:13:56;12.10;99.90
46492;DHT22;32206;51.446;6.792;2022-09-23T04:16:21;12.10;99.90
46492;DHT22;32206;51.446;6.792;2022-09-23T04:18:48;12.10;99.90
46492;DHT22;32206;51.446;6.792;2022-09-23T04:21:14;12.10;99.90
46492;DHT22;32206;51.446;6.792;2022-09-23T04:23:39;12.00;99.90
46492;DHT22;32206;51.446;6.792;2022-09-23T04:26:05;12.10;99.90
46492;DHT22;32206;51.446;6.792;2022-09-23T04:28:32;12.10;99.90
46492;DHT22;32206;51.446;6.792;2022-09-23T04:30:57;12.00;99.90
46492;DHT22;32206;51.446;6.792;2022-09-23T04:33:24;12.10;99.90
46492;DHT22;32206;51.446;6.792;2022-09-23T04:35:50;12.20;99.90
46492;DHT22;32206;51.446;6.792;2022-09-23T04:38:17;12.00;99.90
46492;DHT22;32206;51.446;6.792;2022-09-23T04:40:43;12.50;99.90
46492;DHT22;32206;51.446;6.792;2022-09-23T04:43:09;12.00;99.90
46492;DHT22;32206;51.446;6.792;2022-09-23T04:45:34;12.10;99.90
46492;DHT22;32206;51.446;6.792;2022-09-23T04:48:01;12.00;99.90
46492;DHT22;32206;51.446;6.792;2022-09-23T04:50:27;12.00;99.90
46492;DHT22;32206;51.446;6.792;2022-09-23T04:52:53;12.10;99.90
46492;DHT22;32206;51.446;6.792;2022-09-23T04:55:20;12.10;99.90
46492;DHT22;32206;51.446;6.792;2022-09-23T04:57:46;12.10;99.90
46492;DHT22;32206;51.446;6.792;2022-09-23T05:00:12;12.10;99.90
46492;DHT22;32206;51.446;6.792;2022-09-23T05:02:47;12.10;99.90
46492;DHT22;32206;51.446;6.792;2022-09-23T05:05:14;12.00;99.90
46492;DHT22;32206;51.446;6.792;2022-09-23T05:07:42;12.10;99.90
46492;DHT22;32206;51.446;6.792;2022-09-23T05:10:08;12.10;99.90
46492;DHT22;32206;51.446;6.792;2022-09-23T05:12:34;12.30;99.90
46492;DHT22;32206;51.446;6.792;2022-09-23T05:15:00;12.10;99.90
46492;DHT22;32206;51.446;6.792;2022-09-23T05:17:26;12.10;99.90
46492;DHT22;32206;51.446;6.792;2022-09-23T05:19:56;12.10;99.90
46492;DHT22;32206;51.446;6.792;2022-09-23T05:22:22;12.30;99.90
46492;DHT22;32206;51.446;6.792;2022-09-23T05:24:48;12.00;99.90
46492;DHT22;32206;51.446;6.792;2022-09-23T05:27:13;12.00;99.90
46492;DHT22;32206;51.446;6.792;2022-09-23T05:29:39;12.10;99.90
46492;DHT22;32206;51.446;6.792;2022-09-23T05:32:05;12.10;99.90
46492;DHT22;32206;51.446;6.792;2022-09-23T05:34:30;12.30;99.90
46492;DHT22;32206;51.446;6.792;2022-09-23T05:37:05;12.00;99.90
46492;DHT22;32206;51.446;6.792;2022-09-23T05:39:37;12.30;99.90
46492;DHT22;32206;51.446;6.792;2022-09-23T05:42:03;12.00;99.90
46492;DHT22;32206;51.446;6.792;2022-09-23T05:44:28;12.00;99.90
46492;DHT22;32206;51.446;6.792;2022-09-23T05:46:54;11.90;99.90
46492;DHT22;32206;51.446;6.792;2022-09-23T05:49:20;11.90;99.90
46492;DHT22;32206;51.446;6.792;2022-09-23T05:51:45;11.90;99.90
46492;DHT22;32206;51.446;6.792;2022-09-23T05:54:11;11.70;99.90
46492;DHT22;32206;51.446;6.792;2022-09-23T05:56:37;11.80;99.90
46492;DHT22;32206;51.446;6.792;2022-09-23T05:59:03;12.00;99.90
46492;DHT22;32206;51.446;6.792;2022-09-23T06:01:32;11.80;99.90
46492;DHT22;32206;51.446;6.792;2022-09-23T06:03:58;11.80;99.90
46492;DHT22;32206;51.446;6.792;2022-09-23T06:06:31;11.80;99.90
46492;DHT22;32206;51.446;6.792;2022-09-23T06:08:59;11.80;99.90
46492;DHT22;32206;51.446;6.792;2022-09-23T06:11:26;11.90;99.90
46492;DHT22;32206;51.446;6.792;2022-09-23T06:13:55;12.00;99.90
46492;DHT22;32206;51.446;6.792;2022-09-23T06:16:26;12.20;99.90
46492;DHT22;32206;51.446;6.792;2022-09-23T06:18:51;11.90;99.90
46492;DHT22;32206;51.446;6.792;2022-09-23T06:21:17;11.90;99.90
46492;DHT22;32206;51.446;6.792;2022-09-23T06:23:44;12.10;99.90
46492;DHT22;32206;51.446;6.792;2022-09-23T06:26:12;12.00;99.90
46492;DHT22;32206;51.446;6.792;2022-09-23T06:28:39;12.10;99.90
46492;DHT22;32206;51.446;6.792;2022-09-23T06:31:09;12.10;99.90
46492;DHT22;32206;51.446;6.792;2022-09-23T06:33:34;12.00;99.90
46492;DHT22;32206;51.446;6.792;2022-09-23T06:36:02;12.00;99.90
46492;DHT22;32206;51.446;6.792;2022-09-23T06:38:29;12.10;99.90
46492;DHT22;32206;51.446;6.792;2022-09-23T06:40:56;12.10;99.90
46492;DHT22;32206;51.446;6.792;2022-09-23T06:43:23;12.30;99.90
46492;DHT22;32206;51.446;6.792;2022-09-23T06:45:56;12.20;99.90
46492;DHT22;32206;51.446;6.792;2022-09-23T06:48:22;12.20;99.90
46492;DHT22;32206;51.446;6.792;2022-09-23T06:50:49;12.20;99.90
46492;DHT22;32206;51.446;6.792;2022-09-23T06:53:15;12.20;99.90
46492;DHT22;32206;51.446;6.792;2022-09-23T06:55:41;12.30;99.90
46492;DHT22;32206;51.446;6.792;2022-09-23T06:58:07;12.40;99.90
46492;DHT22;32206;51.446;6.792;2022-09-23T07:00:34;12.50;99.90
46492;DHT22;32206;51.446;6.792;2022-09-23T07:03:00;12.50;99.90
46492;DHT22;32206;51.446;6.792;2022-09-23T07:05:25;12.60;99.90
46492;DHT22;32206;51.446;6.792;2022-09-23T07:07:51;13.00;99.90
46492;DHT22;32206;51.446;6.792;2022-09-23T07:10:18;12.60;99.90
46492;DHT22;32206;51.446;6.792;2022-09-23T07:12:43;12.90;99.90
46492;DHT22;32206;51.446;6.792;2022-09-23T07:15:10;12.70;99.90
46492;DHT22;32206;51.446;6.792;2022-09-23T07:17:35;12.90;99.90
46492;DHT22;32206;51.446;6.792;2022-09-23T07:20:02;12.90;99.90
46492;DHT22;32206;51.446;6.792;2022-09-23T07:22:27;13.00;99.90
46492;DHT22;32206;51.446;6.792;2022-09-23T07:24:53;13.00;99.90
46492;DHT22;32206;51.446;6.792;2022-09-23T07:27:23;13.30;99.90
46492;DHT22;32206;51.446;6.792;2022-09-23T07:29:50;13.10;99.90
46492;DHT22;32206;51.446;6.792;2022-09-23T07:32:17;13.20;77.70
46492;DHT22;32206;51.446;6.792;2022-09-23T07:34:43;13.30;99.90
46492;DHT22;32206;51.446;6.792;2022-09-23T07:37:11;13.20;99.90
46492;DHT22;32206;51.446;6.792;2022-09-23T07:39:37;13.30;97.30
46492;DHT22;32206;51.446;6.792;2022-09-23T07:42:04;13.40;99.90
46492;DHT22;32206;51.446;6.792;2022-09-23T07:44:30;13.50;1.00
46492;DHT22;32206;51.446;6.792;2022-09-23T07:46:57;13.60;99.90
46492;DHT22;32206;51.446;6.792;2022-09-23T07:49:23;13.60;1.00
46492;DHT22;32206;51.446;6.792;2022-09-23T07:51:50;13.70;1.00
46492;DHT22;32206;51.446;6.792;2022-09-23T07:54:16;13.80;1.00
46492;DHT22;32206;51.446;6.792;2022-09-23T07:56:43;13.80;99.90
46492;DHT22;32206;51.446;6.792;2022-09-23T07:59:14;13.80;99.90
46492;DHT22;32206;51.446;6.792;2022-09-23T08:01:47;13.80;1.00
46492;DHT22;32206;51.446;6.792;2022-09-23T08:04:25;13.80;1.00
46492;DHT22;32206;51.446;6.792;2022-09-23T08:06:58;13.90;99.90
46492;DHT22;32206;51.446;6.792;2022-09-23T08:09:30;14.10;1.00
46492;DHT22;32206;51.446;6.792;2022-09-23T08:11:57;14.00;99.90
46492;DHT22;32206;51.446;6.792;2022-09-23T08:14:23;14.10;99.90
46492;DHT22;32206;51.446;6.792;2022-09-23T08:16:49;14.10;99.90
46492;DHT22;32206;51.446;6.792;2022-09-23T08:19:18;14.20;99.90
46492;DHT22;32206;51.446;6.792;2022-09-23T08:21:45;14.20;99.90
46492;DHT22;32206;51.446;6.792;2022-09-23T08:24:17;14.30;99.90
46492;DHT22;32206;51.446;6.792;2022-09-23T08:26:44;14.30;99.90
46492;DHT22;32206;51.446;6.792;2022-09-23T08:29:14;14.30;99.90
46492;DHT22;32206;51.446;6.792;2022-09-23T08:31:41;14.40;99.90
46492;DHT22;32206;51.446;6.792;2022-09-23T08:34:07;14.50;1.00
46492;DHT22;32206;51.446;6.792;2022-09-23T08:36:33;14.60;99.90
46492;DHT22;32206;51.446;6.792;2022-09-23T08:38:59;14.60;99.90
46492;DHT22;32206;51.446;6.792;2022-09-23T08:42:02;14.60;99.90
46492;DHT22;32206;51.446;6.792;2022-09-23T08:44:46;14.70;99.90
46492;DHT22;32206;51.446;6.792;2022-09-23T08:47:25;14.70;99.90
46492;DHT22;32206;51.446;6.792;2022-09-23T08:49:55;14.70;1.00
46492;DHT22;32206;51.446;6.792;2022-09-23T08:52:30;14.70;96.30
46492;DHT22;32206;51.446;6.792;2022-09-23T08:54:57;14.70;1.00
46492;DHT22;32206;51.446;6.792;2022-09-23T08:59:54;15.00;9.20
46492;DHT22;32206;51.446;6.792;2022-09-23T09:02:21;14.90;99.90
46492;DHT22;32206;51.446;6.792;2022-09-23T09:04:54;14.90;99.90
46492;DHT22;32206;51.446;6.792;2022-09-23T09:07:24;15.00;99.90
46492;DHT22;32206;51.446;6.792;2022-09-23T09:10:05;15.10;99.90
46492;DHT22;32206;51.446;6.792;2022-09-23T09:12:44;15.20;99.90
46492;DHT22;32206;51.446;6.792;2022-09-23T09:20:44;15.30;99.90
46492;DHT22;32206;51.446;6.792;2022-09-23T09:23:22;15.60;99.90
46492;DHT22;32206;51.446;6.792;2022-09-23T09:25:52;15.50;99.90
46492;DHT22;32206;51.446;6.792;2022-09-23T09:37:11;15.80;1.00
46492;DHT22;32206;51.446;6.792;2022-09-23T09:39:39;15.80;99.90
46492;DHT22;32206;51.446;6.792;2022-09-23T09:42:05;15.90;1.00
46492;DHT22;32206;51.446;6.792;2022-09-23T09:44:39;16.00;99.90
46492;DHT22;32206;51.446;6.792;2022-09-23T09:52:12;16.20;99.90
46492;DHT22;32206;51.446;6.792;2022-09-23T09:54:38;16.20;99.90
46492;DHT22;32206;51.446;6.792;2022-09-23T09:57:11;16.30;4.10
46492;DHT22;32206;51.446;6.792;2022-09-23T09:59:40;16.30;93.80
46492;DHT22;32206;51.446;6.792;2022-09-23T10:04:42;16.50;99.90
46492;DHT22;32206;51.446;6.792;2022-09-23T10:09:36;16.60;99.90
46492;DHT22;32206;51.446;6.792;2022-09-23T10:14:43;16.60;1.00
46492;DHT22;32206;51.446;6.792;2022-09-23T10:17:41;16.70;99.90
46492;DHT22;32206;51.446;6.792;2022-09-23T10:20:08;16.80;99.90
46492;DHT22;32206;51.446;6.792;2022-09-23T10:22:38;16.80;99.90
46492;DHT22;32206;51.446;6.792;2022-09-23T10:25:28;16.90;1.00
46492;DHT22;32206;51.446;6.792;2022-09-23T10:27:54;16.90;99.90
46492;DHT22;32206;51.446;6.792;2022-09-23T10:32:49;17.00;99.90
46492;DHT22;32206;51.446;6.792;2022-09-23T10:35:20;17.10;99.90
46492;DHT22;32206;51.446;6.792;2022-09-23T10:37:48;17.10;99.90
46492;DHT22;32206;51.446;6.792;2022-09-23T10:47:00;17.30;1.00
46492;DHT22;32206;51.446;6.792;2022-09-23T10:58:00;18.00;99.90
46492;DHT22;32206;51.446;6.792;2022-09-23T11:03:14;18.20;1.00
46492;DHT22;32206;51.446;6.792;2022-09-23T11:08:56;18.50;99.90
46492;DHT22;32206;51.446;6.792;2022-09-23T11:22:57;18.80;99.90
46492;DHT22;32206;51.446;6.792;2022-09-23T11:36:57;19.40;65.40
46492;DHT22;32206;51.446;6.792;2022-09-23T11:39:48;19.60;32.00
46492;DHT22;32206;51.446;6.792;2022-09-23T11:42:32;19.60;33.90
46492;DHT22;32206;51.446;6.792;2022-09-23T11:45:05;19.80;45.20
46492;DHT22;32206;51.446;6.792;2022-09-23T11:47:38;19.90;1.00
46492;DHT22;32206;51.446;6.792;2022-09-23T11:50:31;20.00;1.00
46492;DHT22;32206;51.446;6.792;2022-09-23T11:56:20;20.10;1.00
46492;DHT22;32206;51.446;6.792;2022-09-23T11:59:02;20.10;1.00
46492;DHT22;32206;51.446;6.792;2022-09-23T12:01:38;20.20;1.00
46492;DHT22;32206;51.446;6.792;2022-09-23T12:06:45;20.30;1.00
46492;DHT22;32206;51.446;6.792;2022-09-23T12:13:04;20.30;1.00
46492;DHT22;32206;51.446;6.792;2022-09-23T12:17:58;20.40;1.00
46492;DHT22;32206;51.446;6.792;2022-09-23T12:23:36;20.50;1.00
46492;DHT22;32206;51.446;6.792;2022-09-23T12:26:10;20.60;1.00
46492;DHT22;32206;51.446;6.792;2022-09-23T12:28:41;20.60;1.00
46492;DHT22;32206;51.446;6.792;2022-09-23T12:31:19;20.80;1.00
46492;DHT22;32206;51.446;6.792;2022-09-23T12:33:49;20.70;1.00
46492;DHT22;32206;51.446;6.792;2022-09-23T12:36:15;20.70;1.00
46492;DHT22;32206;51.446;6.792;2022-09-23T12:38:54;20.70;1.00
46492;DHT22;32206;51.446;6.792;2022-09-23T12:41:35;20.70;1.00
46492;DHT22;32206;51.446;6.792;2022-09-23T12:46:38;20.60;1.00
46492;DHT22;32206;51.446;6.792;2022-09-23T12:49:19;20.60;1.00
46492;DHT22;32206;51.446;6.792;2022-09-23T12:54:41;20.60;1.00
46492;DHT22;32206;51.446;6.792;2022-09-23T12:57:38;20.60;1.00
46492;DHT22;32206;51.446;6.792;2022-09-23T13:02:42;20.50;1.00
46492;DHT22;32206;51.446;6.792;2022-09-23T13:05:45;20.40;1.00
46492;DHT22;32206;51.446;6.792;2022-09-23T13:08:31;20.40;1.00
46492;DHT22;32206;51.446;6.792;2022-09-23T13:10:59;20.30;1.00
46492;DHT22;32206;51.446;6.792;2022-09-23T13:13:39;20.20;1.00
46492;DHT22;32206;51.446;6.792;2022-09-23T13:16:29;20.30;1.00
46492;DHT22;32206;51.446;6.792;2022-09-23T13:18:55;20.30;1.00
46492;DHT22;32206;51.446;6.792;2022-09-23T13:27:21;20.10;1.00
46492;DHT22;32206;51.446;6.792;2022-09-23T13:32:32;20.10;1.00
46492;DHT22;32206;51.446;6.792;2022-09-23T13:35:01;20.10;1.00
46492;DHT22;32206;51.446;6.792;2022-09-23T13:37:40;20.00;1.00
46492;DHT22;32206;51.446;6.792;2022-09-23T13:40:27;19.90;1.00
46492;DHT22;32206;51.446;6.792;2022-09-23T13:42:57;19.90;1.00
46492;DHT22;32206;51.446;6.792;2022-09-23T13:45:25;19.80;1.00
46492;DHT22;32206;51.446;6.792;2022-09-23T13:47:54;19.80;1.00
46492;DHT22;32206;51.446;6.792;2022-09-23T13:50:23;19.80;1.00
46492;DHT22;32206;51.446;6.792;2022-09-23T13:52:55;19.70;1.00
46492;DHT22;32206;51.446;6.792;2022-09-23T13:55:27;19.80;1.00
46492;DHT22;32206;51.446;6.792;2022-09-23T13:58:01;19.80;1.00
46492;DHT22;32206;51.446;6.792;2022-09-23T14:00:32;19.70;1.00
46492;DHT22;32206;51.446;6.792;2022-09-23T14:03:00;19.70;1.00
46492;DHT22;32206;51.446;6.792;2022-09-23T14:05:31;19.70;1.00
46492;DHT22;32206;51.446;6.792;2022-09-23T14:07:58;19.80;1.00
46492;DHT22;32206;51.446;6.792;2022-09-23T14:10:24;19.70;1.00
46492;DHT22;32206;51.446;6.792;2022-09-23T14:12:53;19.70;1.00
46492;DHT22;32206;51.446;6.792;2022-09-23T14:15:20;19.60;1.00
46492;DHT22;32206;51.446;6.792;2022-09-23T14:17:51;19.70;1.00
46492;DHT22;32206;51.446;6.792;2022-09-23T14:20:20;19.60;1.00
46492;DHT22;32206;51.446;6.792;2022-09-23T14:22:46;19.50;1.00
46492;DHT22;32206;51.446;6.792;2022-09-23T14:25:16;19.50;1.00
46492;DHT22;32206;51.446;6.792;2022-09-23T14:27:42;19.50;1.00
46492;DHT22;32206;51.446;6.792;2022-09-23T14:30:14;19.60;1.00
46492;DHT22;32206;51.446;6.792;2022-09-23T14:32:40;19.60;31.10
46492;DHT22;32206;51.446;6.792;2022-09-23T14:35:21;19.60;1.00
46492;DHT22;32206;51.446;6.792;2022-09-23T14:37:53;19.50;1.00
46492;DHT22;32206;51.446;6.792;2022-09-23T14:40:52;19.50;1.00
46492;DHT22;32206;51.446;6.792;2022-09-23T14:43:39;19.50;1.00
46492;DHT22;32206;51.446;6.792;2022-09-23T14:46:04;19.50;1.00
46492;DHT22;32206;51.446;6.792;2022-09-23T14:48:32;19.50;1.00
46492;DHT22;32206;51.446;6.792;2022-09-23T14:51:03;19.40;1.00
46492;DHT22;32206;51.446;6.792;2022-09-23T14:53:34;19.40;1.00
46492;DHT22;32206;51.446;6.792;2022-09-23T15:06:37;19.40;1.00
46492;DHT22;32206;51.446;6.792;2022-09-23T15:09:05;19.40;3.50
46492;DHT22;32206;51.446;6.792;2022-09-23T15:11:32;19.40;1.00
46492;DHT22;32206;51.446;6.792;2022-09-23T15:13:59;19.30;1.00
46492;DHT22;32206;51.446;6.792;2022-09-23T15:16:26;19.30;1.00
46492;DHT22;32206;51.446;6.792;2022-09-23T15:18:54;19.40;1.00
46492;DHT22;32206;51.446;6.792;2022-09-23T15:21:20;19.30;1.00
46492;DHT22;32206;51.446;6.792;2022-09-23T15:23:52;19.30;1.00
46492;DHT22;32206;51.446;6.792;2022-09-23T15:29:07;19.20;1.00
46492;DHT22;32206;51.446;6.792;2022-09-23T15:31:34;19.20;1.00
46492;DHT22;32206;51.446;6.792;2022-09-23T15:34:00;19.20;1.00
46492;DHT22;32206;51.446;6.792;2022-09-23T15:36:27;19.10;1.00
46492;DHT22;32206;51.446;6.792;2022-09-23T15:39:00;19.10;1.00
46492;DHT22;32206;51.446;6.792;2022-09-23T15:41:26;19.20;1.00
46492;DHT22;32206;51.446;6.792;2022-09-23T15:43:52;19.10;1.00
46492;DHT22;32206;51.446;6.792;2022-09-23T15:46:23;19.00;1.00
46492;DHT22;32206;51.446;6.792;2022-09-23T15:49:01;19.10;1.00
46492;DHT22;32206;51.446;6.792;2022-09-23T15:51:29;19.00;1.00
46492;DHT22;32206;51.446;6.792;2022-09-23T15:53:55;19.00;1.00
46492;DHT22;32206;51.446;6.792;2022-09-23T15:56:22;19.00;1.00
46492;DHT22;32206;51.446;6.792;2022-09-23T15:58:48;19.00;1.00
46492;DHT22;32206;51.446;6.792;2022-09-23T16:01:27;18.90;1.00
46492;DHT22;32206;51.446;6.792;2022-09-23T16:03:54;18.90;1.00
46492;DHT22;32206;51.446;6.792;2022-09-23T16:06:20;18.90;1.00
46492;DHT22;32206;51.446;6.792;2022-09-23T16:08:46;18.90;1.00
46492;DHT22;32206;51.446;6.792;2022-09-23T16:11:16;18.90;1.00
46492;DHT22;32206;51.446;6.792;2022-09-23T16:13:43;18.80;1.00
46492;DHT22;32206;51.446;6.792;2022-09-23T16:16:09;18.80;1.00
46492;DHT22;32206;51.446;6.792;2022-09-23T16:18:35;18.80;1.00
46492;DHT22;32206;51.446;6.792;2022-09-23T16:21:01;18.80;1.00
46492;DHT22;32206;51.446;6.792;2022-09-23T16:23:30;18.80;1.00
46492;DHT22;32206;51.446;6.792;2022-09-23T16:26:05;18.80;1.00
46492;DHT22;32206;51.446;6.792;2022-09-23T16:28:32;18.80;1.00
46492;DHT22;32206;51.446;6.792;2022-09-23T16:30:57;18.70;12.30
46492;DHT22;32206;51.446;6.792;2022-09-23T16:33:23;18.70;26.80
46492;DHT22;32206;51.446;6.792;2022-09-23T16:35:49;18.80;31.10
46492;DHT22;32206;51.446;6.792;2022-09-23T16:38:15;18.80;76.20
46492;DHT22;32206;51.446;6.792;2022-09-23T16:40:41;18.80;58.90
46492;DHT22;32206;51.446;6.792;2022-09-23T16:43:07;18.80;78.20
46492;DHT22;32206;51.446;6.792;2022-09-23T16:45:32;18.80;50.80
46492;DHT22;32206;51.446;6.792;2022-09-23T16:47:59;18.80;51.80
46492;DHT22;32206;51.446;6.792;2022-09-23T16:50:25;18.70;88.90
46492;DHT22;32206;51.446;6.792;2022-09-23T16:52:51;18.70;99.90
46492;DHT22;32206;51.446;6.792;2022-09-23T16:55:21;18.70;99.90
46492;DHT22;32206;51.446;6.792;2022-09-23T16:57:49;18.90;99.90
46492;DHT22;32206;51.446;6.792;2022-09-23T17:00:15;18.70;99.90
46492;DHT22;32206;51.446;6.792;2022-09-23T17:03:00;18.60;99.90
46492;DHT22;32206;51.446;6.792;2022-09-23T17:05:45;18.60;99.90
46492;DHT22;32206;51.446;6.792;2022-09-23T17:08:11;18.60;99.90
46492;DHT22;32206;51.446;6.792;2022-09-23T17:10:41;18.60;99.90
46492;DHT22;32206;51.446;6.792;2022-09-23T17:13:07;18.60;99.90
46492;DHT22;32206;51.446;6.792;2022-09-23T17:15:37;18.50;99.90
46492;DHT22;32206;51.446;6.792;2022-09-23T17:18:04;18.50;99.90
46492;DHT22;32206;51.446;6.792;2022-09-23T17:20:30;18.50;99.90
46492;DHT22;32206;51.446;6.792;2022-09-23T17:22:56;18.20;99.90
46492;DHT22;32206;51.446;6.792;2022-09-23T17:25:21;18.40;99.90
46492;DHT22;32206;51.446;6.792;2022-09-23T17:27:48;18.40;99.90
46492;DHT22;32206;51.446;6.792;2022-09-23T17:30:13;18.40;99.90
46492;DHT22;32206;51.446;6.792;2022-09-23T17:32:43;18.40;1.00
46492;DHT22;32206;51.446;6.792;2022-09-23T17:35:09;18.30;99.90
46492;DHT22;32206;51.446;6.792;2022-09-23T17:37:35;18.30;1.00
46492;DHT22;32206;51.446;6.792;2022-09-23T17:40:02;18.00;1.00
46492;DHT22;32206;51.446;6.792;2022-09-23T17:42:28;18.30;1.00
46492;DHT22;32206;51.446;6.792;2022-09-23T17:44:54;18.30;99.90
46492;DHT22;32206;51.446;6.792;2022-09-23T17:47:23;18.20;1.00
46492;DHT22;32206;51.446;6.792;2022-09-23T17:49:49;18.20;1.00
46492;DHT22;32206;51.446;6.792;2022-09-23T17:52:16;18.20;1.00
46492;DHT22;32206;51.446;6.792;2022-09-23T17:54:42;18.20;1.00
46492;DHT22;32206;51.446;6.792;2022-09-23T17:57:09;18.10;1.00
46492;DHT22;32206;51.446;6.792;2022-09-23T17:59:35;18.10;1.00
46492;DHT22;32206;51.446;6.792;2022-09-23T18:02:01;18.10;1.00
46492;DHT22;32206;51.446;6.792;2022-09-23T18:04:26;18.10;1.00
46492;DHT22;32206;51.446;6.792;2022-09-23T18:06:52;18.10;50.50
46492;DHT22;32206;51.446;6.792;2022-09-23T18:09:18;18.10;99.50
46492;DHT22;32206;51.446;6.792;2022-09-23T18:11:44;18.10;56.20
46492;DHT22;32206;51.446;6.792;2022-09-23T18:14:19;18.00;99.90
46492;DHT22;32206;51.446;6.792;2022-09-23T18:16:47;18.00;99.90
46492;DHT22;32206;51.446;6.792;2022-09-23T18:19:17;17.90;99.90
46492;DHT22;32206;51.446;6.792;2022-09-23T18:21:46;17.90;99.90
46492;DHT22;32206;51.446;6.792;2022-09-23T18:24:12;17.90;1.00
46492;DHT22;32206;51.446;6.792;2022-09-23T18:26:38;17.90;99.90
46492;DHT22;32206;51.446;6.792;2022-09-23T18:29:04;17.90;99.90
46492;DHT22;32206;51.446;6.792;2022-09-23T18:31:32;17.80;99.90
46492;DHT22;32206;51.446;6.792;2022-09-23T18:34:01;17.80;99.90
46492;DHT22;32206;51.446;6.792;2022-09-23T18:36:27;17.80;1.00
46492;DHT22;32206;51.446;6.792;2022-09-23T18:38:53;17.80;1.00
46492;DHT22;32206;51.446;6.792;2022-09-23T18:41:20;17.80;1.00
46492;DHT22;32206;51.446;6.792;2022-09-23T18:43:46;17.80;33.20
46492;DHT22;32206;51.446;6.792;2022-09-23T18:46:14;17.80;1.00